sensor_id;sensor_type;location;lat;lon;timestamp;P1;durP1;ratioP1;P2;durP2;ratioP2
7338;SDS011;33747;49.524;8.390;2022-08-19T00:02:21;17.10;;;15.30;;
7338;SDS011;33747;49.524;8.390;2022-08-19T00:04:47;17.98;;;16.05;;
7338;SDS011;33747;49.524;8.390;2022-08-19T00:07:17;19.17;;;17.10;;
7338;SDS011;33747;49.524;8.390;2022-08-19T00:09:42;21.17;;;16.83;;
7338;SDS011;33747;49.524;8.390;2022-08-19T00:12:08;24.58;;;16.77;;
7338;SDS011;33747;49.524;8.390;2022-08-19T00:14:33;22.08;;;16.20;;
7338;SDS011;33747;49.524;8.390;2022-08-19T00:16:59;20.67;;;17.42;;
7338;SDS011;33747;49.524;8.390;2022-08-19T00:19:25;20.77;;;16.83;;
7338;SDS011;33747;49.524;8.390;2022-08-19T00:21:51;20.27;;;16.23;;
7338;SDS011;33747;49.524;8.390;2022-08-19T00:24:17;17.75;;;15.80;;
7338;SDS011;33747;49.524;8.390;2022-08-19T00:26:43;23.33;;;16.73;;
7338;SDS011;33747;49.524;8.390;2022-08-19T00:29:10;19.40;;;17.40;;
7338;SDS011;33747;49.524;8.390;2022-08-19T00:31:38;18.00;;;15.85;;
7338;SDS011;33747;49.524;8.390;2022-08-19T00:34:04;23.00;;;16.45;;
7338;SDS011;33747;49.524;8.390;2022-08-19T00:36:29;18.63;;;16.35;;
7338;SDS011;33747;49.524;8.390;2022-08-19T00:38:55;26.60;;;15.02;;
7338;SDS011;33747;49.524;8.390;2022-08-19T00:41:21;18.05;;;15.70;;
7338;SDS011;33747;49.524;8.390;2022-08-19T00:44:06;23.10;;;16.30;;
7338;SDS011;33747;49.524;8.390;2022-08-19T00:46:34;19.38;;;16.17;;
7338;SDS011;33747;49.524;8.390;2022-08-19T00:49:02;16.23;;;14.52;;
7338;SDS011;33747;49.524;8.390;2022-08-19T00:51:39;19.75;;;15.60;;
7338;SDS011;33747;49.524;8.390;2022-08-19T00:54:06;16.15;;;14.48;;
7338;SDS011;33747;49.524;8.390;2022-08-19T00:56:32;20.05;;;15.50;;
7338;SDS011;33747;49.524;8.390;2022-08-19T00:58:57;16.92;;;15.23;;
7338;SDS011;33747;49.524;8.390;2022-08-19T01:01:23;17.20;;;15.32;;
7338;SDS011;33747;49.524;8.390;2022-08-19T01:03:49;24.00;;;15.50;;
7338;SDS011;33747;49.524;8.390;2022-08-19T01:06:15;16.52;;;14.82;;
7338;SDS011;33747;49.524;8.390;2022-08-19T01:08:40;19.83;;;14.23;;
7338;SDS011;33747;49.524;8.390;2022-08-19T01:11:06;18.55;;;15.63;;
7338;SDS011;33747;49.524;8.390;2022-08-19T01:13:32;23.08;;;15.70;;
7338;SDS011;33747;49.524;8.390;2022-08-19T01:16:05;25.20;;;15.50;;
7338;SDS011;33747;49.524;8.390;2022-08-19T01:18:35;23.95;;;16.30;;
7338;SDS011;33747;49.524;8.390;2022-08-19T01:21:07;20.48;;;15.85;;
7338;SDS011;33747;49.524;8.390;2022-08-19T01:23:36;17.05;;;15.18;;
7338;SDS011;33747;49.524;8.390;2022-08-19T01:26:26;18.70;;;16.10;;
7338;SDS011;33747;49.524;8.390;2022-08-19T01:28:52;19.17;;;16.17;;
7338;SDS011;33747;49.524;8.390;2022-08-19T01:31:20;18.30;;;15.13;;
7338;SDS011;33747;49.524;8.390;2022-08-19T01:33:48;17.65;;;15.60;;
7338;SDS011;33747;49.524;8.390;2022-08-19T01:36:16;18.45;;;16.00;;
7338;SDS011;33747;49.524;8.390;2022-08-19T01:38:48;18.05;;;16.17;;
7338;SDS011;33747;49.524;8.390;2022-08-19T01:41:14;17.70;;;15.85;;
7338;SDS011;33747;49.524;8.390;2022-08-19T01:43:41;18.23;;;15.30;;
7338;SDS011;33747;49.524;8.390;2022-08-19T01:46:07;19.02;;;17.10;;
7338;SDS011;33747;49.524;8.390;2022-08-19T01:48:33;17.48;;;15.75;;
7338;SDS011;33747;49.524;8.390;2022-08-19T01:51:03;19.08;;;16.77;;
7338;SDS011;33747;49.524;8.390;2022-08-19T01:53:29;17.90;;;15.90;;
7338;SDS011;33747;49.524;8.390;2022-08-19T01:55:55;18.38;;;16.23;;
7338;SDS011;33747;49.524;8.390;2022-08-19T01:58:22;22.27;;;17.95;;
7338;SDS011;33747;49.524;8.390;2022-08-19T02:00:51;17.55;;;15.65;;
7338;SDS011;33747;49.524;8.390;2022-08-19T02:03:16;24.00;;;16.45;;
7338;SDS011;33747;49.524;8.390;2022-08-19T02:05:41;22.98;;;16.63;;
7338;SDS011;33747;49.524;8.390;2022-08-19T02:08:07;18.13;;;15.77;;
7338;SDS011;33747;49.524;8.390;2022-08-19T02:10:33;24.38;;;17.08;;
7338;SDS011;33747;49.524;8.390;2022-08-19T02:12:58;20.88;;;16.27;;
7338;SDS011;33747;49.524;8.390;2022-08-19T02:15:24;18.02;;;16.05;;
7338;SDS011;33747;49.524;8.390;2022-08-19T02:17:50;17.60;;;15.80;;
7338;SDS011;33747;49.524;8.390;2022-08-19T02:20:16;17.75;;;16.05;;
7338;SDS011;33747;49.524;8.390;2022-08-19T02:22:41;19.13;;;15.80;;
7338;SDS011;33747;49.524;8.390;2022-08-19T02:25:07;23.17;;;16.33;;
7338;SDS011;33747;49.524;8.390;2022-08-19T02:27:36;18.33;;;16.40;;
7338;SDS011;33747;49.524;8.390;2022-08-19T02:30:04;18.75;;;16.77;;
7338;SDS011;33747;49.524;8.390;2022-08-19T02:32:31;19.58;;;16.85;;
7338;SDS011;33747;49.524;8.390;2022-08-19T02:34:57;17.60;;;15.70;;
7338;SDS011;33747;49.524;8.390;2022-08-19T02:37:22;18.45;;;15.82;;
7338;SDS011;33747;49.524;8.390;2022-08-19T02:40:06;18.65;;;16.25;;
7338;SDS011;33747;49.524;8.390;2022-08-19T02:42:32;17.60;;;15.75;;
7338;SDS011;33747;49.524;8.390;2022-08-19T02:44:57;19.23;;;16.17;;
7338;SDS011;33747;49.524;8.390;2022-08-19T02:47:23;20.20;;;16.75;;
7338;SDS011;33747;49.524;8.390;2022-08-19T02:49:48;20.48;;;17.13;;
7338;SDS011;33747;49.524;8.390;2022-08-19T02:52:16;20.90;;;16.88;;
7338;SDS011;33747;49.524;8.390;2022-08-19T02:54:42;21.45;;;17.08;;
7338;SDS011;33747;49.524;8.390;2022-08-19T02:57:07;18.77;;;16.40;;
7338;SDS011;33747;49.524;8.390;2022-08-19T02:59:33;23.17;;;16.90;;
7338;SDS011;33747;49.524;8.390;2022-08-19T03:01:58;18.52;;;15.55;;
7338;SDS011;33747;49.524;8.390;2022-08-19T03:04:24;21.40;;;16.85;;
7338;SDS011;33747;49.524;8.390;2022-08-19T03:06:50;19.13;;;16.13;;
7338;SDS011;33747;49.524;8.390;2022-08-19T03:09:15;19.70;;;16.63;;
7338;SDS011;33747;49.524;8.390;2022-08-19T03:11:41;17.75;;;14.48;;
7338;SDS011;33747;49.524;8.390;2022-08-19T03:14:07;20.90;;;16.25;;
7338;SDS011;33747;49.524;8.390;2022-08-19T03:16:34;23.27;;;15.77;;
7338;SDS011;33747;49.524;8.390;2022-08-19T03:19:05;17.70;;;15.73;;
7338;SDS011;33747;49.524;8.390;2022-08-19T03:21:31;17.63;;;15.40;;
7338;SDS011;33747;49.524;8.390;2022-08-19T03:23:58;19.42;;;15.93;;
7338;SDS011;33747;49.524;8.390;2022-08-19T03:26:28;18.38;;;16.42;;
7338;SDS011;33747;49.524;8.390;2022-08-19T03:28:54;19.60;;;15.85;;
7338;SDS011;33747;49.524;8.390;2022-08-19T03:31:20;17.08;;;15.18;;
7338;SDS011;33747;49.524;8.390;2022-08-19T03:33:47;19.50;;;15.35;;
7338;SDS011;33747;49.524;8.390;2022-08-19T03:36:16;17.85;;;15.95;;
7338;SDS011;33747;49.524;8.390;2022-08-19T03:38:48;17.52;;;14.55;;
7338;SDS011;33747;49.524;8.390;2022-08-19T03:41:16;16.80;;;14.48;;
7338;SDS011;33747;49.524;8.390;2022-08-19T03:43:47;22.83;;;15.50;;
7338;SDS011;33747;49.524;8.390;2022-08-19T03:46:14;18.23;;;15.02;;
7338;SDS011;33747;49.524;8.390;2022-08-19T03:48:41;14.75;;;13.00;;
7338;SDS011;33747;49.524;8.390;2022-08-19T03:51:07;17.92;;;15.40;;
7338;SDS011;33747;49.524;8.390;2022-08-19T03:53:34;17.45;;;15.50;;
7338;SDS011;33747;49.524;8.390;2022-08-19T03:56:00;15.68;;;14.15;;
7338;SDS011;33747;49.524;8.390;2022-08-19T03:58:26;19.60;;;14.70;;
7338;SDS011;33747;49.524;8.390;2022-08-19T04:00:56;16.30;;;14.40;;
7338;SDS011;33747;49.524;8.390;2022-08-19T04:03:22;16.08;;;14.10;;
7338;SDS011;33747;49.524;8.390;2022-08-19T04:05:49;16.85;;;14.13;;
7338;SDS011;33747;49.524;8.390;2022-08-19T04:08:14;16.85;;;14.65;;
7338;SDS011;33747;49.524;8.390;2022-08-19T04:10:45;17.10;;;15.40;;
7338;SDS011;33747;49.524;8.390;2022-08-19T04:13:12;15.48;;;13.25;;
7338;SDS011;33747;49.524;8.390;2022-08-19T04:15:39;17.23;;;14.93;;
7338;SDS011;33747;49.524;8.390;2022-08-19T04:18:06;16.65;;;14.07;;
7338;SDS011;33747;49.524;8.390;2022-08-19T04:20:38;19.48;;;14.15;;
7338;SDS011;33747;49.524;8.390;2022-08-19T04:23:11;17.50;;;14.65;;
7338;SDS011;33747;49.524;8.390;2022-08-19T04:25:38;16.13;;;14.40;;
7338;SDS011;33747;49.524;8.390;2022-08-19T04:28:04;16.00;;;13.07;;
7338;SDS011;33747;49.524;8.390;2022-08-19T04:30:30;14.95;;;13.20;;
7338;SDS011;33747;49.524;8.390;2022-08-19T04:32:55;22.65;;;14.48;;
7338;SDS011;33747;49.524;8.390;2022-08-19T04:35:20;16.08;;;13.43;;
7338;SDS011;33747;49.524;8.390;2022-08-19T04:37:46;15.60;;;13.95;;
7338;SDS011;33747;49.524;8.390;2022-08-19T04:40:11;16.08;;;12.93;;
7338;SDS011;33747;49.524;8.390;2022-08-19T04:42:55;15.07;;;13.43;;
7338;SDS011;33747;49.524;8.390;2022-08-19T04:45:21;13.95;;;12.60;;
7338;SDS011;33747;49.524;8.390;2022-08-19T04:47:47;18.15;;;14.07;;
7338;SDS011;33747;49.524;8.390;2022-08-19T04:50:12;17.30;;;12.70;;
7338;SDS011;33747;49.524;8.390;2022-08-19T04:52:38;16.23;;;13.40;;
7338;SDS011;33747;49.524;8.390;2022-08-19T04:55:08;17.30;;;12.90;;
7338;SDS011;33747;49.524;8.390;2022-08-19T04:57:36;20.42;;;13.45;;
7338;SDS011;33747;49.524;8.390;2022-08-19T05:00:05;13.35;;;11.68;;
7338;SDS011;33747;49.524;8.390;2022-08-19T05:02:31;15.05;;;12.73;;
7338;SDS011;33747;49.524;8.390;2022-08-19T05:04:57;20.52;;;13.63;;
7338;SDS011;33747;49.524;8.390;2022-08-19T05:07:25;14.18;;;12.80;;
7338;SDS011;33747;49.524;8.390;2022-08-19T05:09:50;15.93;;;12.27;;
7338;SDS011;33747;49.524;8.390;2022-08-19T05:12:16;16.05;;;13.18;;
7338;SDS011;33747;49.524;8.390;2022-08-19T05:14:42;17.65;;;12.43;;
7338;SDS011;33747;49.524;8.390;2022-08-19T05:17:08;17.58;;;12.45;;
7338;SDS011;33747;49.524;8.390;2022-08-19T05:19:33;14.77;;;12.43;;
7338;SDS011;33747;49.524;8.390;2022-08-19T05:22:17;14.18;;;12.05;;
7338;SDS011;33747;49.524;8.390;2022-08-19T05:24:59;15.90;;;12.80;;
7338;SDS011;33747;49.524;8.390;2022-08-19T05:27:43;14.57;;;11.90;;
7338;SDS011;33747;49.524;8.390;2022-08-19T05:30:09;14.68;;;11.82;;
7338;SDS011;33747;49.524;8.390;2022-08-19T05:32:35;13.90;;;12.38;;
7338;SDS011;33747;49.524;8.390;2022-08-19T05:35:01;14.48;;;11.63;;
7338;SDS011;33747;49.524;8.390;2022-08-19T05:37:26;16.48;;;12.85;;
7338;SDS011;33747;49.524;8.390;2022-08-19T05:39:52;12.93;;;11.73;;
7338;SDS011;33747;49.524;8.390;2022-08-19T05:42:19;13.70;;;12.10;;
7338;SDS011;33747;49.524;8.390;2022-08-19T05:44:45;14.70;;;12.40;;
7338;SDS011;33747;49.524;8.390;2022-08-19T05:47:12;17.88;;;12.20;;
7338;SDS011;33747;49.524;8.390;2022-08-19T05:49:38;13.73;;;11.25;;
7338;SDS011;33747;49.524;8.390;2022-08-19T05:52:08;12.32;;;10.70;;
7338;SDS011;33747;49.524;8.390;2022-08-19T05:54:36;15.02;;;11.13;;
7338;SDS011;33747;49.524;8.390;2022-08-19T05:57:05;14.50;;;11.63;;
7338;SDS011;33747;49.524;8.390;2022-08-19T05:59:30;13.45;;;10.70;;
7338;SDS011;33747;49.524;8.390;2022-08-19T06:01:55;14.50;;;11.23;;
7338;SDS011;33747;49.524;8.390;2022-08-19T06:04:21;14.60;;;10.25;;
7338;SDS011;33747;49.524;8.390;2022-08-19T06:06:48;17.67;;;10.18;;
7338;SDS011;33747;49.524;8.390;2022-08-19T06:09:16;13.40;;;10.60;;
7338;SDS011;33747;49.524;8.390;2022-08-19T06:11:47;16.35;;;10.15;;
7338;SDS011;33747;49.524;8.390;2022-08-19T06:14:14;11.52;;;8.40;;
7338;SDS011;33747;49.524;8.390;2022-08-19T06:16:42;11.93;;;9.55;;
7338;SDS011;33747;49.524;8.390;2022-08-19T06:19:09;13.32;;;10.15;;
7338;SDS011;33747;49.524;8.390;2022-08-19T06:21:40;10.70;;;9.60;;
7338;SDS011;33747;49.524;8.390;2022-08-19T06:24:09;10.88;;;9.13;;
7338;SDS011;33747;49.524;8.390;2022-08-19T06:26:38;10.85;;;9.00;;
7338;SDS011;33747;49.524;8.390;2022-08-19T06:29:12;11.68;;;9.18;;
7338;SDS011;33747;49.524;8.390;2022-08-19T06:31:43;14.52;;;8.85;;
7338;SDS011;33747;49.524;8.390;2022-08-19T06:34:10;10.50;;;8.45;;
7338;SDS011;33747;49.524;8.390;2022-08-19T06:36:37;11.38;;;7.57;;
7338;SDS011;33747;49.524;8.390;2022-08-19T06:39:09;8.82;;;7.93;;
7338;SDS011;33747;49.524;8.390;2022-08-19T06:41:38;12.40;;;8.15;;
7338;SDS011;33747;49.524;8.390;2022-08-19T06:44:08;8.88;;;7.85;;
7338;SDS011;33747;49.524;8.390;2022-08-19T06:46:35;8.48;;;7.68;;
7338;SDS011;33747;49.524;8.390;2022-08-19T06:49:00;9.70;;;7.22;;
7338;SDS011;33747;49.524;8.390;2022-08-19T06:51:26;8.57;;;7.30;;
7338;SDS011;33747;49.524;8.390;2022-08-19T06:53:53;12.30;;;7.53;;
7338;SDS011;33747;49.524;8.390;2022-08-19T06:56:23;10.88;;;7.55;;
7338;SDS011;33747;49.524;8.390;2022-08-19T06:58:56;8.63;;;7.75;;
7338;SDS011;33747;49.524;8.390;2022-08-19T07:01:22;8.73;;;7.13;;
7338;SDS011;33747;49.524;8.390;2022-08-19T07:03:47;9.30;;;7.15;;
7338;SDS011;33747;49.524;8.390;2022-08-19T07:06:14;9.93;;;7.80;;
7338;SDS011;33747;49.524;8.390;2022-08-19T07:08:42;8.13;;;6.95;;
7338;SDS011;33747;49.524;8.390;2022-08-19T07:11:10;9.45;;;7.18;;
7338;SDS011;33747;49.524;8.390;2022-08-19T07:13:37;7.85;;;6.60;;
7338;SDS011;33747;49.524;8.390;2022-08-19T07:16:07;9.57;;;7.10;;
7338;SDS011;33747;49.524;8.390;2022-08-19T07:18:35;7.65;;;6.85;;
7338;SDS011;33747;49.524;8.390;2022-08-19T07:21:12;20.40;;;6.68;;
7338;SDS011;33747;49.524;8.390;2022-08-19T07:23:39;11.85;;;7.03;;
7338;SDS011;33747;49.524;8.390;2022-08-19T07:26:06;14.18;;;6.90;;
7338;SDS011;33747;49.524;8.390;2022-08-19T07:28:36;7.63;;;6.38;;
7338;SDS011;33747;49.524;8.390;2022-08-19T07:31:05;13.18;;;7.60;;
7338;SDS011;33747;49.524;8.390;2022-08-19T07:33:31;10.27;;;6.85;;
7338;SDS011;33747;49.524;8.390;2022-08-19T07:35:58;8.57;;;6.40;;
7338;SDS011;33747;49.524;8.390;2022-08-19T07:38:23;11.10;;;7.15;;
7338;SDS011;33747;49.524;8.390;2022-08-19T07:40:48;8.55;;;7.15;;
7338;SDS011;33747;49.524;8.390;2022-08-19T07:43:16;7.03;;;6.35;;
7338;SDS011;33747;49.524;8.390;2022-08-19T07:45:47;9.70;;;5.70;;
7338;SDS011;33747;49.524;8.390;2022-08-19T07:48:12;10.45;;;6.47;;
7338;SDS011;33747;49.524;8.390;2022-08-19T07:50:39;6.45;;;5.75;;
7338;SDS011;33747;49.524;8.390;2022-08-19T07:53:04;7.30;;;6.18;;
7338;SDS011;33747;49.524;8.390;2022-08-19T07:55:30;14.75;;;8.50;;
7338;SDS011;33747;49.524;8.390;2022-08-19T07:57:55;15.80;;;6.93;;
7338;SDS011;33747;49.524;8.390;2022-08-19T08:00:21;8.25;;;6.95;;
7338;SDS011;33747;49.524;8.390;2022-08-19T08:02:46;9.75;;;5.68;;
7338;SDS011;33747;49.524;8.390;2022-08-19T08:05:11;11.20;;;6.85;;
7338;SDS011;33747;49.524;8.390;2022-08-19T08:07:55;8.82;;;7.47;;
7338;SDS011;33747;49.524;8.390;2022-08-19T08:10:39;11.20;;;7.70;;
7338;SDS011;33747;49.524;8.390;2022-08-19T08:13:05;10.18;;;7.15;;
7338;SDS011;33747;49.524;8.390;2022-08-19T08:15:31;8.95;;;5.70;;
7338;SDS011;33747;49.524;8.390;2022-08-19T08:17:56;11.35;;;7.40;;
7338;SDS011;33747;49.524;8.390;2022-08-19T08:20:22;9.10;;;6.32;;
7338;SDS011;33747;49.524;8.390;2022-08-19T08:22:48;12.13;;;7.40;;
7338;SDS011;33747;49.524;8.390;2022-08-19T08:25:32;5.50;;;4.97;;
7338;SDS011;33747;49.524;8.390;2022-08-19T08:28:00;8.82;;;6.65;;
7338;SDS011;33747;49.524;8.390;2022-08-19T08:30:26;8.13;;;6.72;;
7338;SDS011;33747;49.524;8.390;2022-08-19T08:32:52;11.60;;;6.70;;
7338;SDS011;33747;49.524;8.390;2022-08-19T08:35:19;8.63;;;5.80;;
7338;SDS011;33747;49.524;8.390;2022-08-19T08:37:46;7.65;;;6.95;;
7338;SDS011;33747;49.524;8.390;2022-08-19T08:43:27;17.73;;;7.88;;
7338;SDS011;33747;49.524;8.390;2022-08-19T08:51:25;10.80;;;6.88;;
7338;SDS011;33747;49.524;8.390;2022-08-19T08:53:58;9.05;;;6.63;;
7338;SDS011;33747;49.524;8.390;2022-08-19T08:56:24;6.70;;;5.72;;
7338;SDS011;33747;49.524;8.390;2022-08-19T08:59:02;7.22;;;5.93;;
7338;SDS011;33747;49.524;8.390;2022-08-19T09:01:32;13.18;;;6.50;;
7338;SDS011;33747;49.524;8.390;2022-08-19T09:03:58;9.48;;;6.82;;
7338;SDS011;33747;49.524;8.390;2022-08-19T09:06:29;7.40;;;6.47;;
7338;SDS011;33747;49.524;8.390;2022-08-19T09:14:19;9.38;;;6.60;;
7338;SDS011;33747;49.524;8.390;2022-08-19T09:16:57;11.75;;;7.10;;
7338;SDS011;33747;49.524;8.390;2022-08-19T09:19:22;9.32;;;6.65;;
7338;SDS011;33747;49.524;8.390;2022-08-19T09:21:48;11.15;;;6.20;;
7338;SDS011;33747;49.524;8.390;2022-08-19T09:24:14;6.15;;;5.40;;
7338;SDS011;33747;49.524;8.390;2022-08-19T09:26:39;7.93;;;5.57;;
7338;SDS011;33747;49.524;8.390;2022-08-19T09:29:05;10.05;;;5.80;;
7338;SDS011;33747;49.524;8.390;2022-08-19T09:31:30;6.25;;;5.07;;
7338;SDS011;33747;49.524;8.390;2022-08-19T09:33:57;11.77;;;6.13;;
7338;SDS011;33747;49.524;8.390;2022-08-19T09:36:23;7.55;;;5.72;;
7338;SDS011;33747;49.524;8.390;2022-08-19T09:38:51;9.23;;;5.40;;
7338;SDS011;33747;49.524;8.390;2022-08-19T09:41:18;6.35;;;5.25;;
7338;SDS011;33747;49.524;8.390;2022-08-19T09:43:46;8.50;;;5.72;;
7338;SDS011;33747;49.524;8.390;2022-08-19T09:46:13;12.20;;;5.97;;
7338;SDS011;33747;49.524;8.390;2022-08-19T09:48:38;7.25;;;5.55;;
7338;SDS011;33747;49.524;8.390;2022-08-19T09:51:06;9.57;;;5.82;;
7338;SDS011;33747;49.524;8.390;2022-08-19T09:53:42;8.65;;;5.43;;
7338;SDS011;33747;49.524;8.390;2022-08-19T09:56:08;7.47;;;5.85;;
7338;SDS011;33747;49.524;8.390;2022-08-19T09:58:34;8.68;;;6.32;;
7338;SDS011;33747;49.524;8.390;2022-08-19T10:01:00;7.72;;;5.22;;
7338;SDS011;33747;49.524;8.390;2022-08-19T10:03:26;7.80;;;4.68;;
7338;SDS011;33747;49.524;8.390;2022-08-19T10:05:53;9.05;;;5.88;;
7338;SDS011;33747;49.524;8.390;2022-08-19T10:08:20;6.93;;;5.55;;
7338;SDS011;33747;49.524;8.390;2022-08-19T10:10:56;8.68;;;5.40;;
7338;SDS011;33747;49.524;8.390;2022-08-19T10:13:23;7.45;;;5.43;;
7338;SDS011;33747;49.524;8.390;2022-08-19T10:15:51;5.75;;;5.25;;
7338;SDS011;33747;49.524;8.390;2022-08-19T10:18:19;7.57;;;5.95;;
7338;SDS011;33747;49.524;8.390;2022-08-19T10:20:45;10.63;;;5.72;;
7338;SDS011;33747;49.524;8.390;2022-08-19T10:23:12;8.60;;;4.95;;
7338;SDS011;33747;49.524;8.390;2022-08-19T10:25:37;5.82;;;5.25;;
7338;SDS011;33747;49.524;8.390;2022-08-19T10:28:03;7.95;;;4.95;;
7338;SDS011;33747;49.524;8.390;2022-08-19T10:30:30;8.68;;;4.75;;
7338;SDS011;33747;49.524;8.390;2022-08-19T10:32:56;6.10;;;4.32;;
7338;SDS011;33747;49.524;8.390;2022-08-19T10:35:21;6.97;;;4.97;;
7338;SDS011;33747;49.524;8.390;2022-08-19T10:37:47;9.80;;;4.82;;
7338;SDS011;33747;49.524;8.390;2022-08-19T10:40:12;5.65;;;5.13;;
7338;SDS011;33747;49.524;8.390;2022-08-19T10:42:37;7.65;;;4.53;;
7338;SDS011;33747;49.524;8.390;2022-08-19T10:45:03;5.50;;;3.65;;
7338;SDS011;33747;49.524;8.390;2022-08-19T10:47:30;5.63;;;4.43;;
7338;SDS011;33747;49.524;8.390;2022-08-19T10:49:56;6.85;;;4.70;;
7338;SDS011;33747;49.524;8.390;2022-08-19T10:52:40;7.53;;;5.30;;
7338;SDS011;33747;49.524;8.390;2022-08-19T10:55:08;10.80;;;5.85;;
7338;SDS011;33747;49.524;8.390;2022-08-19T10:57:52;7.28;;;5.90;;
7338;SDS011;33747;49.524;8.390;2022-08-19T11:00:18;5.65;;;4.60;;
7338;SDS011;33747;49.524;8.390;2022-08-19T11:02:44;5.95;;;4.47;;
7338;SDS011;33747;49.524;8.390;2022-08-19T11:05:11;6.78;;;5.15;;
7338;SDS011;33747;49.524;8.390;2022-08-19T11:07:37;8.07;;;4.47;;
7338;SDS011;33747;49.524;8.390;2022-08-19T11:10:04;4.80;;;4.40;;
7338;SDS011;33747;49.524;8.390;2022-08-19T11:12:30;4.80;;;4.40;;
7338;SDS011;33747;49.524;8.390;2022-08-19T11:14:55;4.75;;;4.13;;
7338;SDS011;33747;49.524;8.390;2022-08-19T11:17:21;5.20;;;4.70;;
7338;SDS011;33747;49.524;8.390;2022-08-19T11:19:48;6.13;;;4.47;;
7338;SDS011;33747;49.524;8.390;2022-08-19T11:22:14;6.57;;;4.40;;
7338;SDS011;33747;49.524;8.390;2022-08-19T11:24:39;7.75;;;4.28;;
7338;SDS011;33747;49.524;8.390;2022-08-19T11:27:06;8.65;;;4.18;;
7338;SDS011;33747;49.524;8.390;2022-08-19T11:29:33;5.97;;;4.90;;
7338;SDS011;33747;49.524;8.390;2022-08-19T11:31:59;10.25;;;4.60;;
7338;SDS011;33747;49.524;8.390;2022-08-19T11:34:26;7.53;;;4.57;;
7338;SDS011;33747;49.524;8.390;2022-08-19T11:36:54;7.78;;;5.05;;
7338;SDS011;33747;49.524;8.390;2022-08-19T11:39:23;5.80;;;4.97;;
7338;SDS011;33747;49.524;8.390;2022-08-19T11:41:49;6.85;;;4.72;;
7338;SDS011;33747;49.524;8.390;2022-08-19T11:44:15;8.25;;;3.97;;
7338;SDS011;33747;49.524;8.390;2022-08-19T11:46:42;4.97;;;4.13;;
7338;SDS011;33747;49.524;8.390;2022-08-19T11:49:12;6.45;;;3.70;;
7338;SDS011;33747;49.524;8.390;2022-08-19T11:51:38;4.25;;;3.83;;
7338;SDS011;33747;49.524;8.390;2022-08-19T11:54:04;5.18;;;4.18;;
7338;SDS011;33747;49.524;8.390;2022-08-19T11:56:30;3.95;;;3.30;;
7338;SDS011;33747;49.524;8.390;2022-08-19T11:58:55;5.32;;;3.53;;
7338;SDS011;33747;49.524;8.390;2022-08-19T12:01:22;7.35;;;3.53;;
7338;SDS011;33747;49.524;8.390;2022-08-19T12:03:49;3.88;;;3.30;;
7338;SDS011;33747;49.524;8.390;2022-08-19T12:06:18;4.07;;;3.75;;
7338;SDS011;33747;49.524;8.390;2022-08-19T12:08:50;4.05;;;3.15;;
7338;SDS011;33747;49.524;8.390;2022-08-19T12:11:15;3.47;;;3.17;;
7338;SDS011;33747;49.524;8.390;2022-08-19T12:13:41;3.03;;;2.83;;
7338;SDS011;33747;49.524;8.390;2022-08-19T12:16:13;4.25;;;2.83;;
7338;SDS011;33747;49.524;8.390;2022-08-19T12:18:43;3.38;;;3.10;;
7338;SDS011;33747;49.524;8.390;2022-08-19T12:21:11;2.88;;;2.65;;
7338;SDS011;33747;49.524;8.390;2022-08-19T12:23:42;3.65;;;3.35;;
7338;SDS011;33747;49.524;8.390;2022-08-19T12:26:10;5.63;;;3.08;;
7338;SDS011;33747;49.524;8.390;2022-08-19T12:28:36;3.55;;;3.10;;
7338;SDS011;33747;49.524;8.390;2022-08-19T12:31:02;4.25;;;3.10;;
7338;SDS011;33747;49.524;8.390;2022-08-19T12:33:27;3.20;;;3.00;;
7338;SDS011;33747;49.524;8.390;2022-08-19T12:35:53;3.30;;;3.00;;
7338;SDS011;33747;49.524;8.390;2022-08-19T12:38:18;2.78;;;2.58;;
7338;SDS011;33747;49.524;8.390;2022-08-19T12:40:48;5.38;;;2.60;;
7338;SDS011;33747;49.524;8.390;2022-08-19T12:43:14;3.28;;;2.97;;
7338;SDS011;33747;49.524;8.390;2022-08-19T12:45:44;6.18;;;2.97;;
7338;SDS011;33747;49.524;8.390;2022-08-19T12:48:10;4.80;;;3.25;;
7338;SDS011;33747;49.524;8.390;2022-08-19T12:50:38;3.60;;;3.30;;
7338;SDS011;33747;49.524;8.390;2022-08-19T12:53:04;2.75;;;2.55;;
7338;SDS011;33747;49.524;8.390;2022-08-19T12:55:29;5.93;;;3.50;;
7338;SDS011;33747;49.524;8.390;2022-08-19T12:57:55;3.65;;;3.30;;
7338;SDS011;33747;49.524;8.390;2022-08-19T13:00:21;4.47;;;3.40;;
7338;SDS011;33747;49.524;8.390;2022-08-19T13:02:47;4.10;;;3.67;;
7338;SDS011;33747;49.524;8.390;2022-08-19T13:05:19;4.15;;;3.78;;
7338;SDS011;33747;49.524;8.390;2022-08-19T13:07:47;8.40;;;3.42;;
7338;SDS011;33747;49.524;8.390;2022-08-19T13:10:15;5.93;;;3.25;;
7338;SDS011;33747;49.524;8.390;2022-08-19T13:12:42;8.70;;;3.08;;
7338;SDS011;33747;49.524;8.390;2022-08-19T13:15:08;2.60;;;2.35;;
7338;SDS011;33747;49.524;8.390;2022-08-19T13:17:34;3.88;;;3.58;;
7338;SDS011;33747;49.524;8.390;2022-08-19T13:20:00;3.97;;;3.00;;
7338;SDS011;33747;49.524;8.390;2022-08-19T13:22:26;4.90;;;3.30;;
7338;SDS011;33747;49.524;8.390;2022-08-19T13:24:51;3.75;;;2.95;;
7338;SDS011;33747;49.524;8.390;2022-08-19T13:27:17;5.28;;;4.05;;
7338;SDS011;33747;49.524;8.390;2022-08-19T13:29:43;5.35;;;3.13;;
7338;SDS011;33747;49.524;8.390;2022-08-19T13:32:28;3.65;;;3.35;;
7338;SDS011;33747;49.524;8.390;2022-08-19T13:35:12;2.85;;;2.40;;
7338;SDS011;33747;49.524;8.390;2022-08-19T13:37:38;3.35;;;2.30;;
7338;SDS011;33747;49.524;8.390;2022-08-19T13:40:13;2.45;;;2.25;;
7338;SDS011;33747;49.524;8.390;2022-08-19T13:42:43;3.25;;;2.10;;
7338;SDS011;33747;49.524;8.390;2022-08-19T13:45:11;4.70;;;2.38;;
7338;SDS011;33747;49.524;8.390;2022-08-19T13:47:37;6.90;;;2.00;;
7338;SDS011;33747;49.524;8.390;2022-08-19T13:50:09;3.47;;;2.50;;
7338;SDS011;33747;49.524;8.390;2022-08-19T13:52:36;8.80;;;3.92;;
7338;SDS011;33747;49.524;8.390;2022-08-19T13:55:02;10.77;;;4.97;;
7338;SDS011;33747;49.524;8.390;2022-08-19T13:57:29;3.22;;;2.65;;
7338;SDS011;33747;49.524;8.390;2022-08-19T13:59:55;3.53;;;2.70;;
7338;SDS011;33747;49.524;8.390;2022-08-19T14:02:20;2.88;;;2.45;;
7338;SDS011;33747;49.524;8.390;2022-08-19T14:04:45;2.38;;;2.17;;
7338;SDS011;33747;49.524;8.390;2022-08-19T14:07:11;3.05;;;2.15;;
7338;SDS011;33747;49.524;8.390;2022-08-19T14:09:36;2.65;;;2.33;;
7338;SDS011;33747;49.524;8.390;2022-08-19T14:12:02;2.75;;;2.55;;
7338;SDS011;33747;49.524;8.390;2022-08-19T14:14:28;6.68;;;2.60;;
7338;SDS011;33747;49.524;8.390;2022-08-19T14:16:53;8.15;;;2.53;;
7338;SDS011;33747;49.524;8.390;2022-08-19T14:19:19;5.53;;;2.38;;
7338;SDS011;33747;49.524;8.390;2022-08-19T14:21:44;2.40;;;2.10;;
7338;SDS011;33747;49.524;8.390;2022-08-19T14:24:10;4.15;;;2.70;;
7338;SDS011;33747;49.524;8.390;2022-08-19T14:26:35;4.97;;;2.42;;
7338;SDS011;33747;49.524;8.390;2022-08-19T14:29:01;2.60;;;2.25;;
7338;SDS011;33747;49.524;8.390;2022-08-19T14:31:26;2.70;;;2.50;;
7338;SDS011;33747;49.524;8.390;2022-08-19T14:33:52;6.47;;;2.63;;
7338;SDS011;33747;49.524;8.390;2022-08-19T14:36:17;5.18;;;2.45;;
7338;SDS011;33747;49.524;8.390;2022-08-19T14:38:43;4.18;;;2.20;;
7338;SDS011;33747;49.524;8.390;2022-08-19T14:41:10;3.50;;;2.38;;
7338;SDS011;33747;49.524;8.390;2022-08-19T14:43:37;2.78;;;2.25;;
7338;SDS011;33747;49.524;8.390;2022-08-19T14:46:03;3.35;;;2.20;;
7338;SDS011;33747;49.524;8.390;2022-08-19T14:48:29;6.68;;;2.38;;
7338;SDS011;33747;49.524;8.390;2022-08-19T14:50:54;2.83;;;2.45;;
7338;SDS011;33747;49.524;8.390;2022-08-19T14:53:20;4.03;;;2.30;;
7338;SDS011;33747;49.524;8.390;2022-08-19T14:55:46;5.97;;;2.92;;
7338;SDS011;33747;49.524;8.390;2022-08-19T14:58:11;3.45;;;2.75;;
7338;SDS011;33747;49.524;8.390;2022-08-19T15:00:37;5.07;;;2.60;;
7338;SDS011;33747;49.524;8.390;2022-08-19T15:03:03;9.02;;;2.63;;
7338;SDS011;33747;49.524;8.390;2022-08-19T15:05:28;3.67;;;2.20;;